createdAt,value
2022-10-07T00:01:35.204Z,99.90
2022-10-07T00:04:03.314Z,99.90
2022-10-07T00:06:32.338Z,99.90
2022-10-07T00:09:02.465Z,99.90
2022-10-07T00:11:32.051Z,99.90
2022-10-07T00:14:01.890Z,99.90
2022-10-07T00:16:31.522Z,99.90
2022-10-07T00:19:01.393Z,99.90
2022-10-07T00:21:33.731Z,99.90
2022-10-07T00:24:04.366Z,99.90
2022-10-07T00:26:37.318Z,99.90
2022-10-07T00:29:06.498Z,99.90
2022-10-07T00:31:36.032Z,99.90
2022-10-07T00:34:05.901Z,99.90
2022-10-07T00:36:35.579Z,99.90
2022-10-07T00:39:06.905Z,99.90
2022-10-07T00:41:41.482Z,99.90
2022-10-07T00:44:36.523Z,99.90
2022-10-07T00:47:08.059Z,99.90
2022-10-07T00:49:42.123Z,99.90
2022-10-07T00:52:10.699Z,99.90
2022-10-07T00:54:39.636Z,99.90
2022-10-07T00:57:09.576Z,99.90
2022-10-07T00:59:40.065Z,99.90
2022-10-07T01:02:10.017Z,99.90
2022-10-07T01:04:38.578Z,99.90
2022-10-07T01:07:07.411Z,99.90
2022-10-07T01:09:35.523Z,99.90
2022-10-07T01:12:13.038Z,99.90
2022-10-07T01:14:54.668Z,99.90
2022-10-07T01:17:28.658Z,99.90
2022-10-07T01:20:23.215Z,99.90
2022-10-07T01:23:07.208Z,99.90
2022-10-07T01:25:52.149Z,99.90
2022-10-07T01:28:26.308Z,99.90
2022-10-07T01:30:57.297Z,99.90
2022-10-07T01:33:30.037Z,99.90
2022-10-07T01:36:02.064Z,99.90
2022-10-07T01:38:32.930Z,99.90
2022-10-07T01:41:09.504Z,99.90
2022-10-07T01:43:42.522Z,99.90
2022-10-07T01:46:15.376Z,99.90
2022-10-07T01:48:43.614Z,99.90
2022-10-07T01:51:13.043Z,99.90
2022-10-07T01:53:52.730Z,99.90
2022-10-07T01:56:37.273Z,99.60
2022-10-07T01:59:30.077Z,98.20
2022-10-07T02:02:06.815Z,97.50
2022-10-07T02:04:48.695Z,97.10
2022-10-07T02:07:29.601Z,96.80
2022-10-07T02:10:04.294Z,97.00
2022-10-07T02:12:39.283Z,98.10
2022-10-07T02:15:16.960Z,98.30
2022-10-07T02:17:53.973Z,98.10
2022-10-07T02:20:25.446Z,98.60
2022-10-07T02:22:56.395Z,99.20
2022-10-07T02:25:27.749Z,99.80
2022-10-07T02:27:57.755Z,99.90
2022-10-07T02:30:28.066Z,99.90
2022-10-07T02:33:03.831Z,99.90
2022-10-07T02:35:38.002Z,99.90
2022-10-07T02:38:10.900Z,99.90
2022-10-07T02:40:44.612Z,99.90
2022-10-07T02:43:21.599Z,99.90
2022-10-07T02:45:59.099Z,99.90
2022-10-07T02:48:31.733Z,99.90
2022-10-07T02:51:06.675Z,99.90
2022-10-07T02:53:36.262Z,99.90
2022-10-07T02:56:05.552Z,99.90
2022-10-07T02:58:37.826Z,99.90
2022-10-07T03:01:10.373Z,99.90
2022-10-07T03:03:38.636Z,99.80
2022-10-07T03:06:07.181Z,99.70
2022-10-07T03:08:37.331Z,99.50
2022-10-07T03:11:07.134Z,99.30
2022-10-07T03:13:35.493Z,99.20
2022-10-07T03:16:05.442Z,98.80
2022-10-07T03:18:35.764Z,98.20
2022-10-07T03:21:16.154Z,98.00
2022-10-07T03:23:44.482Z,98.60
2022-10-07T03:26:13.409Z,98.80
2022-10-07T03:28:41.433Z,99.00
2022-10-07T03:31:11.698Z,99.10
2022-10-07T03:33:45.709Z,99.50
2022-10-07T03:36:14.363Z,99.80
2022-10-07T03:38:44.996Z,99.90
2022-10-07T03:41:13.978Z,99.90
2022-10-07T03:43:42.170Z,99.90
2022-10-07T03:46:12.089Z,99.90
2022-10-07T03:48:41.576Z,99.90
2022-10-07T03:51:11.087Z,99.70
2022-10-07T03:53:40.712Z,99.60
2022-10-07T03:56:09.498Z,99.20
2022-10-07T03:58:39.400Z,99.50
2022-10-07T04:01:12.556Z,99.60
2022-10-07T04:03:47.439Z,99.60
2022-10-07T04:06:18.428Z,99.90
2022-10-07T04:08:46.854Z,99.90
2022-10-07T04:11:14.815Z,99.90
2022-10-07T04:13:46.169Z,99.90
2022-10-07T04:16:14.380Z,99.90
2022-10-07T04:18:43.602Z,99.90
2022-10-07T04:21:12.322Z,99.90
2022-10-07T04:23:42.617Z,99.90
2022-10-07T04:26:12.509Z,99.90
2022-10-07T04:28:45.265Z,99.90
2022-10-07T04:31:17.846Z,99.90
2022-10-07T04:33:48.669Z,99.90
2022-10-07T04:36:22.618Z,99.90
2022-10-07T04:39:02.817Z,99.10
2022-10-07T04:41:35.513Z,98.70
2022-10-07T04:44:05.430Z,97.70
2022-10-07T04:46:38.253Z,96.60
2022-10-07T04:49:11.696Z,95.20
2022-10-07T04:51:39.759Z,94.40
2022-10-07T04:54:09.397Z,94.40
2022-10-07T04:56:44.177Z,93.70
2022-10-07T04:59:14.663Z,92.90
2022-10-07T05:01:44.009Z,91.40
2022-10-07T05:04:12.244Z,90.60
2022-10-07T05:06:40.291Z,89.80
2022-10-07T05:09:12.845Z,89.50
2022-10-07T05:11:44.266Z,89.00
2022-10-07T05:14:21.418Z,89.50
2022-10-07T05:16:51.008Z,89.30
2022-10-07T05:19:21.209Z,89.00
2022-10-07T05:21:49.610Z,89.30
2022-10-07T05:24:19.080Z,88.50
2022-10-07T05:26:47.196Z,88.50
2022-10-07T05:29:17.730Z,88.50
2022-10-07T05:31:50.261Z,88.50
2022-10-07T05:34:21.852Z,88.60
2022-10-07T05:36:50.037Z,88.70
2022-10-07T05:39:19.553Z,89.80
2022-10-07T05:41:51.609Z,88.70
2022-10-07T05:44:25.101Z,88.20
2022-10-07T05:46:55.461Z,87.90
2022-10-07T05:49:23.953Z,88.50
2022-10-07T05:51:52.341Z,87.70
2022-10-07T05:54:24.465Z,86.50
2022-10-07T05:56:54.561Z,85.90
2022-10-07T05:59:23.810Z,85.80
2022-10-07T06:01:52.270Z,85.70
2022-10-07T06:04:22.478Z,84.90
2022-10-07T06:06:53.246Z,84.90
2022-10-07T06:09:42.905Z,84.40
2022-10-07T06:12:33.269Z,84.20
2022-10-07T06:15:05.982Z,83.40
2022-10-07T06:17:34.226Z,83.10
2022-10-07T06:20:05.812Z,82.80
2022-10-07T06:22:34.069Z,82.40
2022-10-07T06:25:04.117Z,82.00
2022-10-07T06:27:34.831Z,80.70
2022-10-07T06:30:03.881Z,81.00
2022-10-07T06:32:32.819Z,80.60
2022-10-07T06:35:01.690Z,80.00
2022-10-07T06:37:32.419Z,79.60
2022-10-07T06:40:00.736Z,78.70
2022-10-07T06:42:33.609Z,78.00
2022-10-07T06:45:25.414Z,78.00
2022-10-07T06:47:55.860Z,78.10
2022-10-07T06:50:25.092Z,78.00
2022-10-07T06:52:54.291Z,77.60
2022-10-07T06:55:22.714Z,77.00
2022-10-07T06:57:52.134Z,77.40
2022-10-07T07:00:22.630Z,77.90
2022-10-07T07:02:51.210Z,78.10
2022-10-07T07:05:19.331Z,77.50
2022-10-07T07:07:48.979Z,76.30
2022-10-07T07:10:18.103Z,76.50
2022-10-07T07:12:53.486Z,76.50
2022-10-07T07:15:21.941Z,76.90
2022-10-07T07:17:50.217Z,76.30
2022-10-07T07:20:21.934Z,76.40
2022-10-07T07:22:50.143Z,76.80
2022-10-07T07:25:18.369Z,76.10
2022-10-07T07:27:47.924Z,76.30
2022-10-07T07:30:23.116Z,76.80
2022-10-07T07:32:52.894Z,77.30
2022-10-07T07:35:21.074Z,76.20
2022-10-07T07:37:50.358Z,75.60
2022-10-07T07:40:20.165Z,75.40
2022-10-07T07:42:48.823Z,75.40
2022-10-07T07:45:19.383Z,74.90
2022-10-07T07:47:49.443Z,75.80
2022-10-07T07:50:20.752Z,75.40
2022-10-07T07:52:51.059Z,74.60
2022-10-07T07:55:24.298Z,74.40
2022-10-07T07:57:54.681Z,74.40
2022-10-07T08:00:24.215Z,74.50
2022-10-07T08:03:00.806Z,74.70
2022-10-07T08:05:30.086Z,73.40
2022-10-07T08:08:01.519Z,74.30
2022-10-07T08:10:30.357Z,73.60
2022-10-07T08:12:58.592Z,73.10
2022-10-07T08:15:28.514Z,72.90
2022-10-07T08:17:56.673Z,73.10
2022-10-07T08:20:24.738Z,73.00
2022-10-07T08:22:58.183Z,72.40
2022-10-07T08:25:29.565Z,72.10
2022-10-07T08:27:58.911Z,72.00
2022-10-07T08:30:30.304Z,71.20
2022-10-07T08:33:01.331Z,71.90
2022-10-07T08:35:29.658Z,71.60
2022-10-07T08:37:57.983Z,71.00
2022-10-07T08:40:26.053Z,70.10
2022-10-07T08:42:55.167Z,70.80
2022-10-07T08:45:31.696Z,69.90
2022-10-07T08:48:05.622Z,69.20
2022-10-07T08:50:43.490Z,68.90
2022-10-07T08:53:18.204Z,69.40
2022-10-07T08:55:50.731Z,69.80
2022-10-07T08:58:45.047Z,69.80
2022-10-07T09:01:22.798Z,69.40
2022-10-07T09:04:05.060Z,69.80
2022-10-07T09:06:37.188Z,69.80
2022-10-07T09:09:14.442Z,70.40
2022-10-07T09:11:47.938Z,69.30
2022-10-07T09:14:26.914Z,69.50
2022-10-07T09:16:57.617Z,68.80
2022-10-07T09:19:32.555Z,68.40
2022-10-07T09:22:06.311Z,68.20
2022-10-07T09:24:36.609Z,67.50
2022-10-07T09:27:14.427Z,67.70
2022-10-07T09:29:42.965Z,67.70
2022-10-07T09:32:13.348Z,66.60
2022-10-07T09:34:42.896Z,67.20
2022-10-07T09:37:20.693Z,67.00
2022-10-07T09:39:50.961Z,66.20
2022-10-07T09:42:32.208Z,65.60
2022-10-07T09:45:02.930Z,65.20
2022-10-07T09:47:40.364Z,64.40
2022-10-07T09:50:31.733Z,63.90
2022-10-07T09:53:00.043Z,64.00
2022-10-07T09:55:37.798Z,63.30
2022-10-07T09:58:08.086Z,63.60
2022-10-07T10:00:43.572Z,63.70
2022-10-07T10:03:12.329Z,63.60
2022-10-07T10:05:52.543Z,63.50
2022-10-07T10:08:26.416Z,63.90
2022-10-07T10:10:56.652Z,63.90
2022-10-07T10:13:31.044Z,63.90
2022-10-07T10:16:00.175Z,63.00
2022-10-07T10:18:35.161Z,62.90
2022-10-07T10:21:26.073Z,63.80
2022-10-07T10:23:57.009Z,62.30
2022-10-07T10:26:55.940Z,62.50
2022-10-07T10:29:35.798Z,61.70
2022-10-07T10:32:25.230Z,61.70
2022-10-07T10:35:00.939Z,61.30
2022-10-07T10:37:42.499Z,61.00
2022-10-07T10:40:21.017Z,61.20
2022-10-07T10:42:58.208Z,61.60
2022-10-07T10:45:35.656Z,61.80
2022-10-07T10:48:11.413Z,61.10
2022-10-07T10:50:51.424Z,62.10
2022-10-07T10:53:34.527Z,61.30
2022-10-07T10:56:32.054Z,61.00
2022-10-07T10:59:26.035Z,60.80
2022-10-07T11:02:08.968Z,61.40
2022-10-07T11:04:46.628Z,60.30
2022-10-07T11:07:22.695Z,60.00
2022-10-07T11:09:57.202Z,59.70
2022-10-07T11:12:30.307Z,59.70
2022-10-07T11:15:03.886Z,59.10
2022-10-07T11:17:35.818Z,59.30
2022-10-07T11:20:14.812Z,59.00
2022-10-07T11:22:48.907Z,59.20
2022-10-07T11:25:27.582Z,58.60
2022-10-07T11:28:00.423Z,58.30
2022-10-07T11:30:36.334Z,57.70
2022-10-07T11:33:09.252Z,57.50
2022-10-07T11:35:43.888Z,57.50
2022-10-07T11:38:18.448Z,57.30
2022-10-07T11:40:52.712Z,57.80
2022-10-07T11:43:28.578Z,58.00
2022-10-07T11:46:09.198Z,58.30
2022-10-07T11:48:44.017Z,58.00
2022-10-07T11:51:22.762Z,57.50
2022-10-07T11:53:55.138Z,57.70
2022-10-07T11:56:26.895Z,57.40
2022-10-07T11:59:00.770Z,56.80
2022-10-07T12:01:48.917Z,56.90
2022-10-07T12:04:39.197Z,55.70
2022-10-07T12:07:36.881Z,55.20
2022-10-07T12:10:36.988Z,55.40
2022-10-07T12:13:38.348Z,55.90
2022-10-07T12:16:51.494Z,56.30
2022-10-07T12:19:23.568Z,56.70
2022-10-07T12:22:19.943Z,57.20
2022-10-07T12:25:29.132Z,57.90
2022-10-07T12:28:01.694Z,57.20
2022-10-07T12:30:42.471Z,57.10
2022-10-07T12:33:17.723Z,56.70
2022-10-07T12:35:54.208Z,56.40
2022-10-07T12:38:30.553Z,56.30
2022-10-07T12:41:19.591Z,56.70
2022-10-07T12:43:57.105Z,56.00
2022-10-07T12:46:26.560Z,56.80
2022-10-07T12:48:59.917Z,56.50
2022-10-07T12:51:31.039Z,56.20
2022-10-07T12:54:04.258Z,56.10
2022-10-07T12:56:32.483Z,55.80
2022-10-07T12:59:41.843Z,54.90
2022-10-07T13:02:44.145Z,54.50
2022-10-07T13:06:00.382Z,54.70
2022-10-07T13:09:11.651Z,55.00
2022-10-07T13:12:13.827Z,55.40
2022-10-07T13:14:56.474Z,55.50
2022-10-07T13:17:36.806Z,55.00
2022-10-07T13:20:29.350Z,54.40
2022-10-07T13:22:57.586Z,54.20
2022-10-07T13:25:25.661Z,54.20
2022-10-07T13:27:59.026Z,54.50
2022-10-07T13:30:38.711Z,54.50
2022-10-07T13:33:28.242Z,54.40
2022-10-07T13:36:08.818Z,55.00
2022-10-07T13:38:37.124Z,55.40
2022-10-07T13:41:15.849Z,55.30
2022-10-07T13:43:45.011Z,54.80
2022-10-07T13:46:16.966Z,54.90
2022-10-07T13:48:46.226Z,54.90
2022-10-07T13:51:21.832Z,55.10
2022-10-07T13:53:55.845Z,55.20
2022-10-07T13:56:26.957Z,55.50
2022-10-07T13:58:56.945Z,55.90
2022-10-07T14:01:29.325Z,56.30
2022-10-07T14:04:10.878Z,56.50
2022-10-07T14:06:48.319Z,56.60
2022-10-07T14:09:26.467Z,56.90
2022-10-07T14:11:58.023Z,57.20
2022-10-07T14:14:32.527Z,57.30
2022-10-07T14:17:02.206Z,57.50
2022-10-07T14:19:33.586Z,57.70
2022-10-07T14:22:15.191Z,57.90
2022-10-07T14:24:43.504Z,58.10
2022-10-07T14:27:52.493Z,58.20
2022-10-07T14:30:29.305Z,58.10
2022-10-07T14:33:25.134Z,58.30
2022-10-07T14:36:11.609Z,58.50
2022-10-07T14:38:41.143Z,59.00
2022-10-07T14:41:09.738Z,59.10
2022-10-07T14:43:43.256Z,59.30
2022-10-07T14:46:16.760Z,60.10
2022-10-07T14:48:47.014Z,58.90
2022-10-07T14:51:17.548Z,59.20
2022-10-07T14:53:49.130Z,59.50
2022-10-07T14:56:25.083Z,59.50
2022-10-07T14:58:54.123Z,59.60
2022-10-07T15:01:24.930Z,59.50
2022-10-07T15:03:54.465Z,59.70
2022-10-07T15:06:22.857Z,60.00
2022-10-07T15:08:50.851Z,60.10
2022-10-07T15:11:22.906Z,60.40
2022-10-07T15:13:50.979Z,60.90
2022-10-07T15:16:21.236Z,61.20
2022-10-07T15:18:52.783Z,61.80
2022-10-07T15:21:23.419Z,62.10
2022-10-07T15:23:52.970Z,62.00
2022-10-07T15:26:24.185Z,62.50
2022-10-07T15:28:54.257Z,62.80
2022-10-07T15:31:26.658Z,63.20
2022-10-07T15:33:57.003Z,63.70
2022-10-07T15:36:27.480Z,64.20
2022-10-07T15:38:55.943Z,64.50
2022-10-07T15:41:32.854Z,64.70
2022-10-07T15:44:02.862Z,65.00
2022-10-07T15:46:31.650Z,65.40
2022-10-07T15:49:00.678Z,65.70
2022-10-07T15:51:31.481Z,66.30
2022-10-07T15:54:00.079Z,66.50
2022-10-07T15:56:28.477Z,67.10
2022-10-07T15:58:58.497Z,67.60
2022-10-07T16:01:31.687Z,67.80
2022-10-07T16:04:01.609Z,68.40
2022-10-07T16:06:32.864Z,68.60
2022-10-07T16:09:01.929Z,68.80
2022-10-07T16:11:33.151Z,69.40
2022-10-07T16:14:04.041Z,69.60
2022-10-07T16:16:33.208Z,70.00
2022-10-07T16:19:01.817Z,70.60
2022-10-07T16:21:34.960Z,70.90
2022-10-07T16:24:04.892Z,71.80
2022-10-07T16:26:35.789Z,72.30
2022-10-07T16:29:25.139Z,72.50
2022-10-07T16:31:58.256Z,73.10
2022-10-07T16:34:27.535Z,73.70
2022-10-07T16:36:58.155Z,74.70
2022-10-07T16:39:26.405Z,75.00
2022-10-07T16:41:56.395Z,76.10
2022-10-07T16:44:24.810Z,76.20
2022-10-07T16:46:56.570Z,76.90
2022-10-07T16:49:27.389Z,77.20
2022-10-07T16:51:57.670Z,77.80
2022-10-07T16:54:29.838Z,77.90
2022-10-07T16:56:58.538Z,78.50
2022-10-07T16:59:27.082Z,78.90
2022-10-07T17:02:00.102Z,80.00
2022-10-07T17:04:28.261Z,79.60
2022-10-07T17:06:58.502Z,79.80
2022-10-07T17:09:26.610Z,80.00
2022-10-07T17:11:54.618Z,80.50
2022-10-07T17:14:23.884Z,81.40
2022-10-07T17:16:56.483Z,81.70
2022-10-07T17:19:28.521Z,82.10
2022-10-07T17:21:59.609Z,82.00
2022-10-07T17:24:28.239Z,82.60
2022-10-07T17:26:56.825Z,82.70
2022-10-07T17:29:26.210Z,83.30
2022-10-07T17:31:55.014Z,84.10
2022-10-07T17:34:24.209Z,84.30
2022-10-07T17:36:54.053Z,85.00
2022-10-07T17:39:23.827Z,86.20
2022-10-07T17:41:51.918Z,86.20
2022-10-07T17:44:21.449Z,86.00
2022-10-07T17:46:50.213Z,86.70
2022-10-07T17:49:18.370Z,87.50
2022-10-07T17:51:46.395Z,87.80
2022-10-07T17:54:15.210Z,88.10
2022-10-07T17:56:47.732Z,88.00
2022-10-07T17:59:16.464Z,88.10
2022-10-07T18:01:45.531Z,88.50
2022-10-07T18:04:17.914Z,88.50
2022-10-07T18:06:48.009Z,89.10
2022-10-07T18:09:18.682Z,89.50
2022-10-07T18:12:05.873Z,89.60
2022-10-07T18:14:53.994Z,89.80
2022-10-07T18:17:23.168Z,90.30
2022-10-07T18:19:51.487Z,90.10
2022-10-07T18:22:19.538Z,90.40
2022-10-07T18:24:47.518Z,90.90
2022-10-07T18:27:21.726Z,90.90
2022-10-07T18:29:49.870Z,90.80
2022-10-07T18:32:17.917Z,91.50
2022-10-07T18:34:46.088Z,91.40
2022-10-07T18:37:14.413Z,91.50
2022-10-07T18:39:42.471Z,91.90
2022-10-07T18:42:10.617Z,92.00
2022-10-07T18:44:40.099Z,92.10
2022-10-07T18:47:08.288Z,93.00
2022-10-07T18:49:36.383Z,92.80
2022-10-07T18:52:07.559Z,92.80
2022-10-07T18:54:38.018Z,92.80
2022-10-07T18:57:06.146Z,92.80
2022-10-07T18:59:34.315Z,92.30
2022-10-07T19:02:03.964Z,92.60
2022-10-07T19:04:32.263Z,93.10
2022-10-07T19:07:00.348Z,93.50
2022-10-07T19:09:28.831Z,94.40
2022-10-07T19:11:59.773Z,94.90
2022-10-07T19:14:28.492Z,94.80
2022-10-07T19:16:56.522Z,96.20
2022-10-07T19:19:26.466Z,96.30
2022-10-07T19:21:56.099Z,96.20
2022-10-07T19:24:45.594Z,96.60
2022-10-07T19:27:14.174Z,96.80
2022-10-07T19:29:42.170Z,96.90
2022-10-07T19:32:10.483Z,97.30
2022-10-07T19:34:39.928Z,97.40
2022-10-07T19:37:07.976Z,98.60
2022-10-07T19:39:36.042Z,98.90
2022-10-07T19:42:04.369Z,99.70
2022-10-07T19:44:33.553Z,99.90
2022-10-07T19:47:03.222Z,99.90
2022-10-07T19:49:31.322Z,99.90
2022-10-07T19:52:00.777Z,99.90
2022-10-07T19:54:30.390Z,99.90
2022-10-07T19:56:58.452Z,99.90
2022-10-07T19:59:26.876Z,99.90
2022-10-07T20:02:00.152Z,99.90
2022-10-07T20:04:29.249Z,99.90
2022-10-07T20:06:59.098Z,99.90
2022-10-07T20:09:28.541Z,99.90
2022-10-07T20:11:56.785Z,99.90
2022-10-07T20:14:24.815Z,99.90
2022-10-07T20:16:54.994Z,99.90
2022-10-07T20:19:23.334Z,99.90
2022-10-07T20:21:51.559Z,99.90
2022-10-07T20:24:19.701Z,99.90
2022-10-07T20:26:49.177Z,99.90
2022-10-07T20:29:20.401Z,99.90
2022-10-07T20:31:53.138Z,99.90
2022-10-07T20:34:21.409Z,99.90
2022-10-07T20:36:50.477Z,99.90
2022-10-07T20:39:36.888Z,99.90
2022-10-07T20:42:24.846Z,99.90
2022-10-07T20:44:53.756Z,99.90
2022-10-07T20:47:23.642Z,99.90
2022-10-07T20:49:56.308Z,99.90
2022-10-07T20:52:26.369Z,99.90
2022-10-07T20:54:54.930Z,99.90
2022-10-07T20:57:28.696Z,99.90
2022-10-07T20:59:56.813Z,99.90
2022-10-07T21:02:25.588Z,99.90
2022-10-07T21:04:53.769Z,99.90
2022-10-07T21:07:21.839Z,99.90
2022-10-07T21:09:49.956Z,99.90
2022-10-07T21:12:20.543Z,99.90
2022-10-07T21:14:51.139Z,99.90
2022-10-07T21:17:19.128Z,99.90
2022-10-07T21:19:47.286Z,99.90
2022-10-07T21:22:15.278Z,99.90
2022-10-07T21:24:46.486Z,99.90
2022-10-07T21:27:14.550Z,99.90
2022-10-07T21:29:47.964Z,99.90
2022-10-07T21:32:18.650Z,99.90
2022-10-07T21:34:46.709Z,99.90
2022-10-07T21:37:15.081Z,99.90
2022-10-07T21:39:43.274Z,99.90
2022-10-07T21:42:11.296Z,99.90
2022-10-07T21:44:39.326Z,99.90
2022-10-07T21:47:07.434Z,99.90
2022-10-07T21:49:37.252Z,99.90
2022-10-07T21:52:05.390Z,99.90
2022-10-07T21:54:33.395Z,99.90
2022-10-07T21:57:01.408Z,99.90
2022-10-07T21:59:33.532Z,99.90
2022-10-07T22:02:02.185Z,99.90
2022-10-07T22:04:30.735Z,99.90
2022-10-07T22:07:17.608Z,99.90
2022-10-07T22:09:46.030Z,99.90
2022-10-07T22:12:16.391Z,99.90
2022-10-07T22:14:44.516Z,99.90
2022-10-07T22:17:14.239Z,99.90
2022-10-07T22:19:44.655Z,99.90
2022-10-07T22:22:14.018Z,99.90
2022-10-07T22:24:42.265Z,99.90
2022-10-07T22:27:10.706Z,99.90
2022-10-07T22:29:38.871Z,99.90
2022-10-07T22:32:07.389Z,99.90
2022-10-07T22:34:54.890Z,99.90
2022-10-07T22:37:24.504Z,99.90
2022-10-07T22:39:52.491Z,99.90
2022-10-07T22:42:20.592Z,99.90
2022-10-07T22:44:48.683Z,99.90
2022-10-07T22:47:16.706Z,99.90
2022-10-07T22:49:44.751Z,99.90
2022-10-07T22:52:15.132Z,99.90
2022-10-07T22:54:44.586Z,99.90
2022-10-07T22:57:12.664Z,99.90
2022-10-07T22:59:40.708Z,99.90
2022-10-07T23:02:10.274Z,99.90
2022-10-07T23:04:38.452Z,99.90
2022-10-07T23:07:06.538Z,99.90
2022-10-07T23:09:34.640Z,99.90
2022-10-07T23:12:05.860Z,99.90
2022-10-07T23:14:34.161Z,99.90
2022-10-07T23:17:02.262Z,99.90
2022-10-07T23:19:30.960Z,99.90
2022-10-07T23:22:00.198Z,99.90
2022-10-07T23:24:29.316Z,99.90
2022-10-07T23:26:57.385Z,99.90
2022-10-07T23:29:27.116Z,99.90
2022-10-07T23:31:55.222Z,99.90
2022-10-07T23:34:23.550Z,99.90
2022-10-07T23:36:55.247Z,99.90
2022-10-07T23:39:23.694Z,99.90
2022-10-07T23:41:51.726Z,99.90
2022-10-07T23:44:19.766Z,99.90
2022-10-07T23:46:51.610Z,99.90
2022-10-07T23:49:19.737Z,99.90
2022-10-07T23:51:47.951Z,99.90
2022-10-07T23:54:16.084Z,99.90
2022-10-07T23:56:44.149Z,99.90
2022-10-07T23:59:12.131Z,99.90
